Time;durP1;ratioP1;P1;durP2;ratioP2;P2;SDS_P1;SDS_P2;PMS_P1;PMS_P2;Temp;Humidity;BMP_temperature;BMP_pressure;BME280_temperature;BME280_humidity;BME280_pressure;Samples;Min_cycle;Max_cycle;Signal;HPM_P1;HPM_P2
2022/05/01 00:02:20;;;;;;;15.63;10.33;;;;;;;;;;5033884;28;20850;-50
2022/05/01 00:04:46;;;;;;;17.13;10.80;;;;;;;;;;5032517;28;20504;-49
2022/05/01 00:07:12;;;;;;;13.77;10.67;;;;;;;;;;5033696;28;20400;-52
2022/05/01 00:09:39;;;;;;;14.60;9.80;;;;;;;;;;5033611;28;20420;-54
2022/05/01 00:12:07;;;;;;;14.97;10.03;;;;;;;;;;5033900;28;20404;-51
2022/05/01 00:14:33;;;;;;;18.50;10.70;;;;;;;;;;5032259;28;20401;-52
2022/05/01 00:16:59;;;;;;;12.50;10.53;;;;;;;;;;5033750;28;20431;-51
2022/05/01 00:19:25;;;;;;;14.00;10.17;;;;;;;;;;5032198;28;20909;-51
2022/05/01 00:21:51;;;;;;;14.20;10.90;;;;;;;;;;5033113;28;20452;-51
2022/05/01 00:24:17;;;;;;;14.10;10.40;;;;;;;;;;5032117;28;20416;-53
2022/05/01 00:26:43;;;;;;;16.30;10.83;;;;;;;;;;5033318;28;20416;-51
2022/05/01 00:29:09;;;;;;;13.27;10.50;;;;;;;;;;5033437;28;20716;-50
2022/05/01 00:31:35;;;;;;;14.00;11.50;;;;;;;;;;5031939;28;20428;-51
2022/05/01 00:36:46;;;;;;;13.20;10.00;;;;;;;;;;5033374;28;20966;-51
2022/05/01 00:39:12;;;;;;;16.60;10.40;;;;;;;;;;5033176;28;20416;-52
2022/05/01 00:41:39;;;;;;;16.13;10.93;;;;;;;;;;5031699;28;20976;-50
2022/05/01 00:44:08;;;;;;;16.83;11.13;;;;;;;;;;5033010;28;20448;-51
2022/05/01 00:46:38;;;;;;;13.40;10.37;;;;;;;;;;5031500;28;20416;-54
2022/05/01 00:49:05;;;;;;;14.93;10.40;;;;;;;;;;5032944;28;20909;-52
2022/05/01 00:51:33;;;;;;;17.63;10.87;;;;;;;;;;5032670;28;20765;-52
2022/05/01 00:53:59;;;;;;;13.60;10.00;;;;;;;;;;5032966;28;20404;-54
2022/05/01 00:56:25;;;;;;;14.57;10.63;;;;;;;;;;5033325;28;20436;-55
2022/05/01 00:58:52;;;;;;;13.47;10.13;;;;;;;;;;5033080;28;20408;-69
2022/05/01 01:01:19;;;;;;;13.97;10.83;;;;;;;;;;5033034;28;20420;-65
2022/05/01 01:03:45;;;;;;;21.00;10.90;;;;;;;;;;5031505;28;20417;-57
2022/05/01 01:06:11;;;;;;;16.87;10.67;;;;;;;;;;5031304;28;20479;-51
2022/05/01 01:08:40;;;;;;;14.93;10.90;;;;;;;;;;5031415;28;20429;-66
2022/05/01 01:11:06;;;;;;;14.63;11.00;;;;;;;;;;5032575;28;20424;-54
2022/05/01 01:13:33;;;;;;;11.60;10.00;;;;;;;;;;5032679;28;20491;-52
2022/05/01 01:16:04;;;;;;;14.97;10.40;;;;;;;;;;5032520;28;20417;-50
2022/05/01 01:18:30;;;;;;;14.60;10.50;;;;;;;;;;5032614;28;20754;-49
2022/05/01 01:20:56;;;;;;;20.33;11.20;;;;;;;;;;5032554;28;20404;-54
2022/05/01 01:23:22;;;;;;;14.47;11.07;;;;;;;;;;5032296;28;20436;-51
2022/05/01 01:25:48;;;;;;;12.10;8.87;;;;;;;;;;5032596;28;20530;-57
2022/05/01 01:28:15;;;;;;;19.50;10.80;;;;;;;;;;5032669;28;20405;-52
2022/05/01 01:33:28;;;;;;;17.43;10.97;;;;;;;;;;5032426;28;20501;-54
2022/05/01 01:35:55;;;;;;;12.67;9.07;;;;;;;;;;5032438;28;20404;-53
2022/05/01 01:38:21;;;;;;;13.60;10.03;;;;;;;;;;5032390;28;20413;-55
2022/05/01 01:40:48;;;;;;;13.27;9.13;;;;;;;;;;5032545;28;20587;-52
2022/05/01 01:43:17;;;;;;;12.83;10.43;;;;;;;;;;5031325;28;20490;-48
2022/05/01 01:45:43;;;;;;;13.70;10.57;;;;;;;;;;5032258;28;20460;-51
2022/05/01 01:48:14;;;;;;;15.40;10.20;;;;;;;;;;5031030;28;20408;-52
2022/05/01 01:50:40;;;;;;;16.97;9.10;;;;;;;;;;5032396;28;20912;-53
2022/05/01 01:53:07;;;;;;;15.60;10.47;;;;;;;;;;5031070;28;20416;-54
2022/05/01 01:55:33;;;;;;;17.93;11.33;;;;;;;;;;5032306;28;20409;-50
2022/05/01 01:58:00;;;;;;;14.63;9.83;;;;;;;;;;5031006;28;20478;-53
2022/05/01 02:00:27;;;;;;;12.80;10.10;;;;;;;;;;5032266;28;20928;-56
2022/05/01 02:03:06;;;;;;;14.83;10.57;;;;;;;;;;5033589;28;20400;-51
2022/05/01 02:05:33;;;;;;;19.50;9.70;;;;;;;;;;5035917;28;20994;-51
2022/05/01 02:07:59;;;;;;;12.07;9.93;;;;;;;;;;5035896;28;20412;-50
2022/05/01 02:10:26;;;;;;;12.10;8.70;;;;;;;;;;5035978;28;20495;-53
2022/05/01 02:12:52;;;;;;;13.00;10.20;;;;;;;;;;5035822;28;20757;-52
2022/05/01 02:15:19;;;;;;;12.93;9.80;;;;;;;;;;5035974;28;20417;-52
2022/05/01 02:17:45;;;;;;;12.97;10.60;;;;;;;;;;5035918;28;20412;-51
2022/05/01 02:20:11;;;;;;;12.13;10.20;;;;;;;;;;5035777;28;20408;-50
2022/05/01 02:22:41;;;;;;;11.67;9.13;;;;;;;;;;5035445;28;20513;-51
2022/05/01 02:25:10;;;;;;;13.67;9.63;;;;;;;;;;5035670;28;20536;-49
2022/05/01 02:27:39;;;;;;;11.13;8.10;;;;;;;;;;5035655;28;20408;-51
2022/05/01 02:30:06;;;;;;;11.27;7.87;;;;;;;;;;5035500;28;20408;-50
2022/05/01 02:32:32;;;;;;;14.37;9.40;;;;;;;;;;5035544;28;20507;-53
2022/05/01 02:34:58;;;;;;;9.93;8.87;;;;;;;;;;5035478;28;20445;-52
2022/05/01 02:37:24;;;;;;;11.57;9.17;;;;;;;;;;5035614;28;20919;-52
2022/05/01 02:39:50;;;;;;;10.50;9.00;;;;;;;;;;5035564;28;20417;-52
2022/05/01 02:42:19;;;;;;;14.77;10.00;;;;;;;;;;5035505;28;20415;-52
2022/05/01 02:44:45;;;;;;;15.20;8.33;;;;;;;;;;5035346;28;20959;-51
2022/05/01 02:47:11;;;;;;;14.27;8.30;;;;;;;;;;5035280;28;20419;-51
2022/05/01 02:49:40;;;;;;;9.30;8.40;;;;;;;;;;5035131;28;20863;-51
2022/05/01 02:52:07;;;;;;;8.87;8.07;;;;;;;;;;5033825;28;20861;-52
2022/05/01 02:54:33;;;;;;;11.57;8.60;;;;;;;;;;5035281;28;20761;-52
2022/05/01 02:56:59;;;;;;;8.30;7.33;;;;;;;;;;5033663;28;20421;-51
2022/05/01 02:59:25;;;;;;;8.43;7.70;;;;;;;;;;5034886;28;20495;-51
2022/05/01 03:01:51;;;;;;;9.30;8.30;;;;;;;;;;5034797;28;20413;-52
2022/05/01 03:04:17;;;;;;;9.13;7.83;;;;;;;;;;5034893;28;20421;-53
2022/05/01 03:06:43;;;;;;;9.03;8.13;;;;;;;;;;5033489;28;20427;-54
2022/05/01 03:09:09;;;;;;;9.47;8.43;;;;;;;;;;5034637;28;20921;-49
2022/05/01 03:11:38;;;;;;;10.47;8.20;;;;;;;;;;5033515;28;20499;-50
2022/05/01 03:14:04;;;;;;;12.73;8.77;;;;;;;;;;5034493;28;20805;-53
2022/05/01 03:16:30;;;;;;;10.23;8.20;;;;;;;;;;5034666;28;20467;-51
2022/05/01 03:24:26;;;;;;;8.40;7.57;;;;;;;;;;5034505;28;20468;-50
2022/05/01 03:26:52;;;;;;;11.50;8.03;;;;;;;;;;5034412;28;20404;-51
2022/05/01 03:29:19;;;;;;;8.40;7.60;;;;;;;;;;5034742;28;20416;-50
2022/05/01 03:31:46;;;;;;;12.43;8.00;;;;;;;;;;5034484;28;20413;-52
2022/05/01 03:34:14;;;;;;;9.20;7.67;;;;;;;;;;5034448;28;20508;-52
2022/05/01 03:36:40;;;;;;;9.00;7.93;;;;;;;;;;5034280;28;20396;-56
2022/05/01 03:39:06;;;;;;;9.73;8.27;;;;;;;;;;5034446;28;20547;-51
2022/05/01 03:41:33;;;;;;;9.10;7.93;;;;;;;;;;5034161;28;20492;-51
2022/05/01 03:43:59;;;;;;;11.73;7.90;;;;;;;;;;5032792;28;20408;-49
2022/05/01 03:46:25;;;;;;;9.80;7.57;;;;;;;;;;5032821;28;20468;-49
2022/05/01 03:48:51;;;;;;;9.97;8.47;;;;;;;;;;5034070;28;20427;-51
2022/05/01 03:51:18;;;;;;;8.90;8.00;;;;;;;;;;5034177;28;20412;-51
2022/05/01 03:53:47;;;;;;;7.80;7.00;;;;;;;;;;5034015;28;20408;-49
2022/05/01 03:56:13;;;;;;;16.20;8.00;;;;;;;;;;5033915;28;20908;-51
2022/05/01 03:58:39;;;;;;;12.33;7.57;;;;;;;;;;5034008;28;20405;-50
2022/05/01 04:01:07;;;;;;;9.43;7.53;;;;;;;;;;5033827;28;20821;-49
2022/05/01 04:03:36;;;;;;;9.37;8.00;;;;;;;;;;5033857;28;20400;-50
2022/05/01 04:06:02;;;;;;;8.20;7.40;;;;;;;;;;5033566;28;20565;-51
2022/05/01 04:08:28;;;;;;;11.50;7.53;;;;;;;;;;5033625;28;20405;-50
2022/05/01 04:10:55;;;;;;;8.40;7.60;;;;;;;;;;5033724;28;20424;-52
2022/05/01 04:13:21;;;;;;;8.60;7.53;;;;;;;;;;5033586;28;20638;-56
2022/05/01 04:15:47;;;;;;;8.10;7.30;;;;;;;;;;5033798;28;20554;-50
2022/05/01 04:18:13;;;;;;;7.57;6.93;;;;;;;;;;5033832;28;20503;-52
2022/05/01 04:20:39;;;;;;;15.50;7.40;;;;;;;;;;5033491;28;20447;-52
2022/05/01 04:23:09;;;;;;;9.43;7.47;;;;;;;;;;5032115;28;20739;-53
2022/05/01 04:25:35;;;;;;;8.20;7.03;;;;;;;;;;5032702;28;20556;-51
2022/05/01 04:28:02;;;;;;;8.67;7.83;;;;;;;;;;5033392;28;20906;-54
2022/05/01 04:30:32;;;;;;;15.33;7.90;;;;;;;;;;5033293;28;20475;-50
2022/05/01 04:32:58;;;;;;;8.00;7.30;;;;;;;;;;5031999;28;20456;-51
2022/05/01 04:35:32;;;;;;;11.17;7.97;;;;;;;;;;5033166;28;20427;-50
2022/05/01 04:38:01;;;;;;;7.73;7.03;;;;;;;;;;5033118;28;20419;-51
2022/05/01 04:40:28;;;;;;;12.43;7.30;;;;;;;;;;5033233;28;20416;-51
2022/05/01 04:43:01;;;;;;;10.17;7.03;;;;;;;;;;5033144;28;20412;-51
2022/05/01 04:45:27;;;;;;;9.43;7.57;;;;;;;;;;5033082;28;20579;-51
2022/05/01 04:47:53;;;;;;;12.10;7.70;;;;;;;;;;5032986;28;20454;-56
2022/05/01 04:50:22;;;;;;;9.90;7.50;;;;;;;;;;5032943;28;20492;-55
2022/05/01 04:52:48;;;;;;;8.67;6.67;;;;;;;;;;5033289;28;20424;-52
2022/05/01 04:55:15;;;;;;;9.77;6.80;;;;;;;;;;5033195;28;20815;-50
2022/05/01 04:57:41;;;;;;;8.33;6.80;;;;;;;;;;5033264;28;20758;-51
2022/05/01 05:00:07;;;;;;;12.10;7.93;;;;;;;;;;5032773;28;20419;-50
2022/05/01 05:02:41;;;;;;;10.77;7.40;;;;;;;;;;5032847;28;20427;-50
2022/05/01 05:05:12;;;;;;;8.83;6.63;;;;;;;;;;5032725;28;20480;-51
2022/05/01 05:07:39;;;;;;;14.73;7.63;;;;;;;;;;5032657;28;20419;-49
2022/05/01 05:10:06;;;;;;;8.10;7.40;;;;;;;;;;5032773;28;20413;-53
2022/05/01 05:12:32;;;;;;;10.60;7.60;;;;;;;;;;5032793;28;20408;-54
2022/05/01 05:15:00;;;;;;;8.23;7.33;;;;;;;;;;5031331;28;20422;-51
2022/05/01 05:17:27;;;;;;;8.27;7.47;;;;;;;;;;5032706;28;20440;-52
2022/05/01 05:19:56;;;;;;;9.03;7.37;;;;;;;;;;5032569;28;20492;-51
2022/05/01 05:22:22;;;;;;;9.70;7.27;;;;;;;;;;5032546;28;20460;-51
2022/05/01 05:24:48;;;;;;;8.50;7.40;;;;;;;;;;5032696;28;20818;-50
2022/05/01 05:27:14;;;;;;;10.53;7.60;;;;;;;;;;5032736;28;20448;-55
2022/05/01 05:29:40;;;;;;;14.80;8.97;;;;;;;;;;5032593;28;20455;-56
2022/05/01 05:32:07;;;;;;;10.67;8.17;;;;;;;;;;5032683;28;20471;-52
2022/05/01 05:34:38;;;;;;;8.33;7.57;;;;;;;;;;5032595;28;20417;-51
2022/05/01 05:37:04;;;;;;;8.27;7.50;;;;;;;;;;5034229;28;20411;-52
2022/05/01 05:39:30;;;;;;;9.43;8.30;;;;;;;;;;5036488;28;20419;-49
2022/05/01 05:41:56;;;;;;;13.03;8.10;;;;;;;;;;5036587;28;20412;-52
2022/05/01 05:44:25;;;;;;;9.97;8.87;;;;;;;;;;5036417;28;20779;-52
2022/05/01 05:46:51;;;;;;;11.67;8.20;;;;;;;;;;5036504;28;20944;-53
2022/05/01 05:49:17;;;;;;;9.57;8.30;;;;;;;;;;5036568;28;20408;-50
2022/05/01 05:51:43;;;;;;;10.43;8.27;;;;;;;;;;5036386;28;20431;-52
2022/05/01 05:54:09;;;;;;;8.40;7.70;;;;;;;;;;5036260;28;20404;-55
2022/05/01 05:56:35;;;;;;;10.87;7.47;;;;;;;;;;5036257;28;20462;-51
2022/05/01 05:59:01;;;;;;;9.20;8.30;;;;;;;;;;5036352;28;20739;-57
2022/05/01 06:01:27;;;;;;;9.70;7.90;;;;;;;;;;5036119;28;20416;-52
2022/05/01 06:03:53;;;;;;;9.30;8.40;;;;;;;;;;5036268;28;20416;-52
2022/05/01 06:06:19;;;;;;;12.90;8.40;;;;;;;;;;5035978;28;20478;-52
2022/05/01 06:08:45;;;;;;;9.93;7.30;;;;;;;;;;5036196;28;20409;-54
2022/05/01 06:11:11;;;;;;;10.13;8.07;;;;;;;;;;5034767;28;20416;-51
2022/05/01 06:13:38;;;;;;;11.57;8.30;;;;;;;;;;5036001;28;20405;-52
2022/05/01 06:16:04;;;;;;;9.63;8.40;;;;;;;;;;5035908;28;20469;-53
2022/05/01 06:18:30;;;;;;;12.60;8.20;;;;;;;;;;5035854;28;20503;-50
2022/05/01 06:20:57;;;;;;;11.47;8.97;;;;;;;;;;5035910;28;20428;-52
2022/05/01 06:23:23;;;;;;;15.37;8.03;;;;;;;;;;5035699;28;20594;-53
2022/05/01 06:25:49;;;;;;;13.50;8.60;;;;;;;;;;5035798;28;20471;-50
2022/05/01 06:28:15;;;;;;;16.00;9.23;;;;;;;;;;5034696;28;20409;-50
2022/05/01 06:30:48;;;;;;;11.27;7.97;;;;;;;;;;5035766;28;20412;-53
2022/05/01 06:33:19;;;;;;;10.07;8.33;;;;;;;;;;5035985;28;20917;-53
2022/05/01 06:35:47;;;;;;;10.60;7.73;;;;;;;;;;5035611;28;20419;-55
2022/05/01 06:38:13;;;;;;;12.10;8.43;;;;;;;;;;5035508;28;20452;-49
2022/05/01 06:40:39;;;;;;;9.33;8.03;;;;;;;;;;5035552;28;20415;-52
2022/05/01 06:43:07;;;;;;;10.53;7.87;;;;;;;;;;5035429;28;20408;-54
2022/05/01 06:45:34;;;;;;;13.03;8.53;;;;;;;;;;5035318;28;20546;-51
2022/05/01 06:48:01;;;;;;;10.80;8.80;;;;;;;;;;5034745;28;20436;-52
2022/05/01 06:50:27;;;;;;;13.07;8.03;;;;;;;;;;5035316;28;20420;-53
2022/05/01 06:52:53;;;;;;;9.50;8.30;;;;;;;;;;5035241;28;20405;-53
2022/05/01 06:55:19;;;;;;;13.37;8.40;;;;;;;;;;5035416;28;20503;-50
2022/05/01 06:57:45;;;;;;;12.60;8.53;;;;;;;;;;5035520;28;20401;-51
2022/05/01 07:00:12;;;;;;;17.30;9.40;;;;;;;;;;5035230;28;20404;-51
2022/05/01 07:02:45;;;;;;;11.30;8.50;;;;;;;;;;5033782;28;20454;-49
2022/05/01 07:05:11;;;;;;;11.97;8.60;;;;;;;;;;5034837;28;20968;-52
2022/05/01 07:07:37;;;;;;;13.97;7.80;;;;;;;;;;5033631;28;20491;-50
2022/05/01 07:10:03;;;;;;;12.93;8.70;;;;;;;;;;5033608;28;20759;-53
2022/05/01 07:12:29;;;;;;;9.50;8.03;;;;;;;;;;5033651;28;20427;-53
2022/05/01 07:14:55;;;;;;;9.70;8.80;;;;;;;;;;5034746;28;21000;-52
2022/05/01 07:17:21;;;;;;;9.43;8.43;;;;;;;;;;5034704;28;20410;-55
2022/05/01 07:19:47;;;;;;;10.43;8.07;;;;;;;;;;5034962;28;20438;-53
2022/05/01 07:22:14;;;;;;;10.30;7.80;;;;;;;;;;5034520;28;20530;-55
2022/05/01 07:24:40;;;;;;;7.83;6.93;;;;;;;;;;5034592;28;20464;-51
2022/05/01 07:27:06;;;;;;;17.10;8.50;;;;;;;;;;5034657;28;20433;-56
2022/05/01 07:29:32;;;;;;;9.80;7.60;;;;;;;;;;5034776;28;20424;-51
2022/05/01 07:31:58;;;;;;;11.73;7.73;;;;;;;;;;5034601;28;20480;-52
2022/05/01 07:34:24;;;;;;;16.40;7.80;;;;;;;;;;5034513;28;20421;-52
2022/05/01 07:36:50;;;;;;;9.10;7.60;;;;;;;;;;5034463;28;21014;-50
2022/05/01 07:39:16;;;;;;;8.77;7.97;;;;;;;;;;5034727;28;20474;-51
2022/05/01 07:41:42;;;;;;;10.63;8.20;;;;;;;;;;5034310;28;20396;-51
2022/05/01 07:44:14;;;;;;;9.17;8.20;;;;;;;;;;5032778;28;20570;-51
2022/05/01 07:46:46;;;;;;;9.90;8.10;;;;;;;;;;5034310;28;20507;-52
2022/05/01 07:49:12;;;;;;;9.53;8.57;;;;;;;;;;5034262;28;20397;-51
2022/05/01 07:51:38;;;;;;;13.13;8.40;;;;;;;;;;5034038;28;20436;-52
2022/05/01 07:54:05;;;;;;;13.60;9.10;;;;;;;;;;5032974;28;20404;-50
2022/05/01 07:56:34;;;;;;;10.27;8.30;;;;;;;;;;5033958;28;20409;-50
2022/05/01 07:59:00;;;;;;;8.83;8.00;;;;;;;;;;5033876;28;20917;-49
2022/05/01 08:01:28;;;;;;;10.77;8.33;;;;;;;;;;5032835;28;20411;-53
2022/05/01 08:06:41;;;;;;;11.43;8.47;;;;;;;;;;5033697;28;20483;-51
2022/05/01 08:09:07;;;;;;;10.53;8.13;;;;;;;;;;5033806;28;20901;-52
2022/05/01 08:11:33;;;;;;;11.63;9.43;;;;;;;;;;5033811;28;20428;-53
2022/05/01 08:13:59;;;;;;;10.93;7.77;;;;;;;;;;5032384;28;20409;-49
2022/05/01 08:16:25;;;;;;;10.83;8.87;;;;;;;;;;5033630;28;20419;-52
2022/05/01 08:21:47;;;;;;;13.87;9.47;;;;;;;;;;5026777;28;20487;-54
2022/05/01 08:24:14;;;;;;;12.17;9.13;;;;;;;;;;5026703;28;20417;-54
2022/05/01 08:26:42;;;;;;;11.20;8.50;;;;;;;;;;5026588;28;20441;-53
2022/05/01 08:29:08;;;;;;;11.40;8.57;;;;;;;;;;5026625;28;20401;-55
2022/05/01 08:31:34;;;;;;;12.10;9.50;;;;;;;;;;5025148;28;20463;-53
2022/05/01 08:34:00;;;;;;;10.70;9.07;;;;;;;;;;5026267;28;20181;-53
2022/05/01 08:36:28;;;;;;;13.43;9.00;;;;;;;;;;5026472;28;20413;-52
2022/05/01 08:38:54;;;;;;;14.90;8.77;;;;;;;;;;5026461;28;20447;-54
2022/05/01 08:41:20;;;;;;;10.40;9.30;;;;;;;;;;5026318;28;20909;-54
2022/05/01 08:43:46;;;;;;;13.40;9.70;;;;;;;;;;5026662;28;20552;-54
2022/05/01 08:46:31;;;;;;;18.23;9.33;;;;;;;;;;5025178;28;20929;-55
2022/05/01 08:49:00;;;;;;;13.73;9.23;;;;;;;;;;5026536;28;20412;-55
2022/05/01 08:51:27;;;;;;;14.53;9.73;;;;;;;;;;5026403;28;20924;-54
2022/05/01 08:53:55;;;;;;;12.27;9.50;;;;;;;;;;5026303;28;20407;-52
2022/05/01 08:56:22;;;;;;;10.90;9.40;;;;;;;;;;5025408;28;20882;-52
2022/05/01 08:58:48;;;;;;;14.17;10.67;;;;;;;;;;5026349;28;20436;-54
2022/05/01 09:01:14;;;;;;;13.93;9.70;;;;;;;;;;5024831;28;20483;-57
2022/05/01 09:03:44;;;;;;;12.37;11.07;;;;;;;;;;5026081;28;20420;-53
2022/05/01 09:06:09;;;;;;;12.70;11.07;;;;;;;;;;5026144;28;20427;-51
2022/05/01 09:08:37;;;;;;;12.53;10.73;;;;;;;;;;5025969;28;20408;-55
2022/05/01 09:13:48;;;;;;;23.60;11.57;;;;;;;;;;5026301;28;20400;-53
2022/05/01 09:16:14;;;;;;;14.33;11.07;;;;;;;;;;5025972;28;20417;-52
2022/05/01 09:18:45;;;;;;;13.20;10.77;;;;;;;;;;5024688;28;20486;-53
2022/05/01 09:21:11;;;;;;;12.90;10.10;;;;;;;;;;5040889;28;20978;-54
2022/05/01 09:23:41;;;;;;;14.27;10.10;;;;;;;;;;5045613;28;20400;-55
2022/05/01 09:26:08;;;;;;;14.37;9.90;;;;;;;;;;5045621;28;20416;-57
2022/05/01 09:28:36;;;;;;;12.50;10.20;;;;;;;;;;5045372;28;20449;-52
2022/05/01 09:31:02;;;;;;;13.97;10.27;;;;;;;;;;5043814;28;20416;-57
2022/05/01 09:33:29;;;;;;;13.70;10.40;;;;;;;;;;5031972;28;20407;-55
2022/05/01 09:35:55;;;;;;;16.20;11.97;;;;;;;;;;5031906;28;20504;-56
2022/05/01 09:38:25;;;;;;;19.80;12.87;;;;;;;;;;5032195;28;20408;-53
2022/05/01 09:41:02;;;;;;;13.80;12.07;;;;;;;;;;5014376;28;20479;-51
2022/05/01 09:43:34;;;;;;;15.70;14.00;;;;;;;;;;5032127;28;20408;-59
2022/05/01 09:46:16;;;;;;;22.33;13.80;;;;;;;;;;5031960;28;20494;-54
2022/05/01 09:48:43;;;;;;;16.57;12.90;;;;;;;;;;5032001;28;20408;-61
2022/05/01 09:51:19;;;;;;;14.33;11.93;;;;;;;;;;5031958;28;20515;-54
2022/05/01 09:53:46;;;;;;;13.77;12.37;;;;;;;;;;5032154;28;20516;-53
2022/05/01 09:56:12;;;;;;;21.53;12.73;;;;;;;;;;5014186;28;20409;-57
2022/05/01 09:58:40;;;;;;;18.43;13.30;;;;;;;;;;5014285;28;20409;-54
2022/05/01 10:01:10;;;;;;;21.47;16.20;;;;;;;;;;5031831;28;20464;-53
2022/05/01 10:03:39;;;;;;;17.83;14.50;;;;;;;;;;5031864;28;20438;-52
2022/05/01 10:06:06;;;;;;;21.53;15.40;;;;;;;;;;5031565;28;20420;-54
2022/05/01 10:08:33;;;;;;;23.03;14.00;;;;;;;;;;5014001;28;20417;-53
2022/05/01 10:10:59;;;;;;;21.03;14.30;;;;;;;;;;5013822;28;20420;-53
2022/05/01 10:13:26;;;;;;;17.70;12.07;;;;;;;;;;5031641;28;20499;-53
2022/05/01 10:15:53;;;;;;;15.43;12.30;;;;;;;;;;5031479;28;20465;-53
2022/05/01 10:18:22;;;;;;;14.47;12.40;;;;;;;;;;5031670;28;20466;-56
2022/05/01 10:20:49;;;;;;;13.40;12.00;;;;;;;;;;5013865;28;20564;-51
2022/05/01 10:23:16;;;;;;;15.03;11.30;;;;;;;;;;4997581;28;20887;-53
2022/05/01 10:25:48;;;;;;;19.40;15.63;;;;;;;;;;5031281;28;20897;-52
2022/05/01 10:28:20;;;;;;;17.03;13.60;;;;;;;;;;5031456;28;20412;-55
2022/05/01 10:34:10;;;;;;;24.53;15.23;;;;;;;;;;5031637;28;20411;-51
2022/05/01 10:36:42;;;;;;;16.60;13.60;;;;;;;;;;5031151;28;20434;-54
2022/05/01 10:39:09;;;;;;;24.73;14.03;;;;;;;;;;5031047;28;20744;-60
2022/05/01 10:41:39;;;;;;;16.50;14.53;;;;;;;;;;5030967;28;20479;-53
2022/05/01 10:44:06;;;;;;;23.33;16.53;;;;;;;;;;5029800;28;20503;-56
2022/05/01 10:46:33;;;;;;;15.23;13.60;;;;;;;;;;5030917;28;20424;-54
2022/05/01 10:49:03;;;;;;;15.10;13.17;;;;;;;;;;5030981;28;20408;-54
2022/05/01 10:51:36;;;;;;;15.37;13.70;;;;;;;;;;5030924;28;20508;-57
2022/05/01 10:54:11;;;;;;;14.30;11.50;;;;;;;;;;5030962;28;20476;-52
2022/05/01 10:56:37;;;;;;;18.50;12.10;;;;;;;;;;5030819;28;20791;-55
2022/05/01 10:59:22;;;;;;;15.50;11.63;;;;;;;;;;5030867;28;20401;-63
2022/05/01 11:01:52;;;;;;;15.20;11.97;;;;;;;;;;5030836;28;20456;-62
2022/05/01 11:04:21;;;;;;;13.67;11.80;;;;;;;;;;5030850;28;20436;-52
2022/05/01 11:06:57;;;;;;;15.30;12.13;;;;;;;;;;5030696;28;20409;-54
2022/05/01 11:09:23;;;;;;;16.57;12.60;;;;;;;;;;5013315;28;20412;-62
2022/05/01 11:12:00;;;;;;;18.30;12.63;;;;;;;;;;5030597;28;20405;-52
2022/05/01 11:14:36;;;;;;;16.73;12.90;;;;;;;;;;5030573;28;20821;-54
2022/05/01 11:17:02;;;;;;;13.83;11.67;;;;;;;;;;5030487;28;20404;-60
2022/05/01 11:19:44;;;;;;;16.13;11.30;;;;;;;;;;5030067;28;20409;-54
2022/05/01 11:22:11;;;;;;;17.73;11.87;;;;;;;;;;5030437;28;20932;-56
2022/05/01 11:24:44;;;;;;;13.37;11.97;;;;;;;;;;5030256;28;20408;-55
2022/05/01 11:27:16;;;;;;;18.30;11.50;;;;;;;;;;5030205;28;20416;-57
2022/05/01 11:30:22;;;;;;;13.03;11.67;;;;;;;;;;5030178;28;20414;-59
2022/05/01 11:32:52;;;;;;;15.33;10.80;;;;;;;;;;5030688;28;20461;-60
2022/05/01 11:35:19;;;;;;;12.97;11.00;;;;;;;;;;5012626;28;20473;-51
2022/05/01 11:38:01;;;;;;;17.53;10.93;;;;;;;;;;5030252;28;20405;-56
2022/05/01 11:40:28;;;;;;;15.43;10.90;;;;;;;;;;5030031;28;20460;-53
2022/05/01 11:43:13;;;;;;;14.00;11.60;;;;;;;;;;5029748;28;20408;-59
2022/05/01 11:45:39;;;;;;;14.13;11.77;;;;;;;;;;5012171;28;20404;-56
2022/05/01 11:48:11;;;;;;;13.70;11.10;;;;;;;;;;5029839;28;20465;-55
2022/05/01 11:50:42;;;;;;;12.67;10.77;;;;;;;;;;5029717;28;20401;-55
2022/05/01 11:53:16;;;;;;;16.63;11.23;;;;;;;;;;5029846;28;20405;-60
2022/05/01 12:04:02;;;;;;;18.10;11.83;;;;;;;;;;5029972;28;20457;-56
2022/05/01 12:06:29;;;;;;;17.10;11.53;;;;;;;;;;5029796;28;20416;-63
2022/05/01 12:08:55;;;;;;;13.33;11.63;;;;;;;;;;5029684;28;21119;-52
2022/05/01 12:11:27;;;;;;;15.50;11.17;;;;;;;;;;5029541;28;20811;-57
2022/05/01 12:14:07;;;;;;;15.40;11.40;;;;;;;;;;5029436;28;20535;-53
2022/05/01 12:16:36;;;;;;;11.87;10.73;;;;;;;;;;5029581;28;20416;-56
2022/05/01 12:19:03;;;;;;;18.43;11.47;;;;;;;;;;5029408;28;20453;-60
2022/05/01 12:21:29;;;;;;;13.70;10.60;;;;;;;;;;5011559;28;20828;-54
2022/05/01 12:24:01;;;;;;;14.90;9.87;;;;;;;;;;5029467;28;20413;-55
2022/05/01 12:26:27;;;;;;;21.10;14.93;;;;;;;;;;5029347;28;20413;-58
2022/05/01 12:28:53;;;;;;;13.13;11.73;;;;;;;;;;5029518;28;20442;-55
2022/05/01 12:31:19;;;;;;;11.70;10.33;;;;;;;;;;5029498;28;20507;-57
2022/05/01 12:33:52;;;;;;;12.03;10.73;;;;;;;;;;5029732;28;20440;-59
2022/05/01 12:36:24;;;;;;;13.37;9.37;;;;;;;;;;5029441;28;20420;-53
2022/05/01 12:39:00;;;;;;;11.40;10.30;;;;;;;;;;5029290;28;20429;-56
2022/05/01 12:44:11;;;;;;;17.83;12.43;;;;;;;;;;5029205;28;20439;-63
2022/05/01 12:46:39;;;;;;;15.93;9.87;;;;;;;;;;5011466;28;20420;-57
2022/05/01 12:49:06;;;;;;;14.00;10.33;;;;;;;;;;5029020;28;20404;-53
2022/05/01 12:51:36;;;;;;;10.97;9.87;;;;;;;;;;5011512;28;20420;-53
2022/05/01 12:54:17;;;;;;;10.63;9.10;;;;;;;;;;5029173;28;20400;-56
2022/05/01 12:56:45;;;;;;;10.17;9.13;;;;;;;;;;5029040;28;20408;-62
2022/05/01 12:59:30;;;;;;;12.07;9.50;;;;;;;;;;5011357;28;20462;-56
2022/05/01 13:01:57;;;;;;;12.47;9.17;;;;;;;;;;5029106;28;20440;-53
2022/05/01 13:04:30;;;;;;;14.37;10.53;;;;;;;;;;5028958;28;20449;-65
2022/05/01 13:06:56;;;;;;;12.27;10.10;;;;;;;;;;5030141;28;20419;-57
2022/05/01 13:09:23;;;;;;;12.07;8.47;;;;;;;;;;5032404;28;20397;-55
2022/05/01 13:12:02;;;;;;;12.60;9.63;;;;;;;;;;5032523;28;20408;-58
2022/05/01 13:14:36;;;;;;;10.53;9.50;;;;;;;;;;5032279;28;20400;-57
2022/05/01 13:17:09;;;;;;;12.50;9.37;;;;;;;;;;5032170;28;20420;-61
2022/05/01 13:19:35;;;;;;;12.43;9.70;;;;;;;;;;5032103;28;20396;-53
2022/05/01 13:22:01;;;;;;;10.97;8.80;;;;;;;;;;5032281;28;20413;-57
2022/05/01 13:24:32;;;;;;;11.10;8.87;;;;;;;;;;5032305;28;20448;-58
2022/05/01 13:27:02;;;;;;;10.33;9.20;;;;;;;;;;5032208;28;20420;-56
2022/05/01 13:29:31;;;;;;;9.40;8.07;;;;;;;;;;5032152;28;20542;-57
2022/05/01 13:31:58;;;;;;;10.03;7.90;;;;;;;;;;5032252;28;20971;-59
2022/05/01 13:34:25;;;;;;;8.60;7.77;;;;;;;;;;5032174;28;20413;-65
2022/05/01 13:36:51;;;;;;;8.50;7.63;;;;;;;;;;5031924;28;20405;-65
2022/05/01 13:39:17;;;;;;;8.70;7.80;;;;;;;;;;5032665;28;20772;-73
2022/05/01 13:44:47;;;;;;;10.10;9.10;;;;;;;;;;5032285;28;20319;-71
2022/05/01 13:47:14;;;;;;;12.60;7.70;;;;;;;;;;5032247;28;20397;-71
2022/05/01 13:49:41;;;;;;;9.73;7.80;;;;;;;;;;5031881;28;20408;-75
2022/05/01 13:52:07;;;;;;;8.60;7.67;;;;;;;;;;5031887;28;20392;-58
2022/05/01 13:54:33;;;;;;;9.70;8.50;;;;;;;;;;5031802;28;20796;-66
2022/05/01 13:57:00;;;;;;;10.57;7.90;;;;;;;;;;5031457;28;20411;-59
2022/05/01 13:59:26;;;;;;;9.10;8.07;;;;;;;;;;5031597;28;20475;-72
2022/05/01 14:01:54;;;;;;;9.30;8.40;;;;;;;;;;5031680;28;20421;-67
2022/05/01 14:04:20;;;;;;;9.00;8.20;;;;;;;;;;5013833;28;20432;-62
2022/05/01 14:06:46;;;;;;;9.33;8.43;;;;;;;;;;5031655;28;20423;-60
2022/05/01 14:09:17;;;;;;;10.47;7.80;;;;;;;;;;5013990;28;20947;-53
2022/05/01 14:11:44;;;;;;;8.70;7.80;;;;;;;;;;5031629;28;20405;-60
2022/05/01 14:14:10;;;;;;;8.17;7.37;;;;;;;;;;5031605;28;20468;-56
2022/05/01 14:16:39;;;;;;;11.40;7.80;;;;;;;;;;5014037;28;20916;-59
2022/05/01 14:19:06;;;;;;;8.87;7.97;;;;;;;;;;5031333;28;20917;-55
2022/05/01 14:21:32;;;;;;;8.67;7.50;;;;;;;;;;5031074;28;20495;-63
2022/05/01 14:23:58;;;;;;;7.77;7.13;;;;;;;;;;5031364;28;20508;-59
2022/05/01 14:26:24;;;;;;;10.20;7.40;;;;;;;;;;5031309;28;20923;-62
2022/05/01 14:28:50;;;;;;;8.33;7.53;;;;;;;;;;5031232;28;20409;-62
2022/05/01 14:31:35;;;;;;;7.90;7.20;;;;;;;;;;5031416;28;20416;-58
2022/05/01 14:34:20;;;;;;;7.57;6.77;;;;;;;;;;5031240;28;20612;-60
2022/05/01 14:36:48;;;;;;;10.23;7.03;;;;;;;;;;5031237;28;20419;-60
2022/05/01 14:39:15;;;;;;;11.17;7.23;;;;;;;;;;5031213;28;20412;-59
2022/05/01 14:41:43;;;;;;;8.83;7.40;;;;;;;;;;5027631;28;20926;-54
2022/05/01 14:44:10;;;;;;;9.43;7.53;;;;;;;;;;5019507;28;20405;-70
2022/05/01 14:46:53;;;;;;;12.23;8.63;;;;;;;;;;5020817;28;20408;-61
2022/05/01 14:49:19;;;;;;;8.13;7.33;;;;;;;;;;5019606;28;20405;-59
2022/05/01 14:51:46;;;;;;;9.53;7.60;;;;;;;;;;5022175;28;20461;-55
2022/05/01 14:54:14;;;;;;;8.80;7.60;;;;;;;;;;4996927;28;20186;-57
2022/05/01 14:56:41;;;;;;;9.53;8.13;;;;;;;;;;5011109;28;20418;-70
2022/05/01 15:07:24;;;;;;;8.93;8.03;;;;;;;;;;5010981;28;20417;-64
2022/05/01 15:09:52;;;;;;;8.23;7.50;;;;;;;;;;5010907;28;20906;-51
2022/05/01 15:12:21;;;;;;;12.17;7.43;;;;;;;;;;5010845;28;20420;-61
2022/05/01 15:14:47;;;;;;;14.47;7.80;;;;;;;;;;5011124;28;20428;-59
2022/05/01 15:17:16;;;;;;;10.63;7.20;;;;;;;;;;5010780;28;20906;-66
2022/05/01 15:19:48;;;;;;;8.20;7.40;;;;;;;;;;5010379;28;20589;-54